Cooke City, MT (59020)

10:29 AM MDT on September 16, 2014 (GMT -0600)
Old Cooke City | Change Station
CLOSE
Current Station
Personal Weather Station
Location: Montana, MT
Elevation: 7566 ft
Nearby Weather Stations

Elev 7566 ft 45.02 °N, 109.94 °W | Updated 1 minute ago

Partly Cloudy
Partly Cloudy
56.1 °F
Feels Like 56.1 °F
N
4.7
Wind Variable Wind from ESE

Today
High -- | Low -- °F
--% Chance of Precip.
Yesterday
High -- | Low -- °F
Precip. -- in
6:59 AM 7:28 PM
Last Quarter, 44% visible
Pressure 30.22 in
Visibility -9999.0 miles
Clouds
Dew Point 36 °F
Humidity 46%
Rainfall 0.00 in
Snow Depth 0 in , 0 in , 0 in
UV Not available.
Pollen 6.30 out of 12
Air Quality Not available.
Flu Activity Not available.
METAR KP60 161556Z AUTO 00000KT 10/05 A3035 RMK AO1 SLP234 T01000050 $

More Conditions Fewer Conditions

Pressure 30.22 in
Visibility -9999.0 miles
Clouds
Dew Point 36 °F
Humidity 46%
Rainfall 0.00 in
Snow Depth 0 in , 0 in , 0 in
UV Not available.
Pollen 6.30 out of 12
Air Quality Not available.
Flu Activity Not available.
METAR KP60 161556Z AUTO 00000KT 10/05 A3035 RMK AO1 SLP234 T01000050 $

More Conditions Fewer Conditions

10-Day Weather Forecast

Almanac

Astronomy

Sep. 16, 2014 Rise Set
Actual Time 6:59 AM MDT 7:28 PM MDT
Civil Twilight 6:30 AM MDT 7:57 PM MDT
Nautical Twilight 5:55 AM MDT 8:32 PM MDT
Astronomical Twilight 5:19 AM MDT 9:08 PM MDT
Moon 12:00 AM MDT 3:06 PM MDT
Length of Visible Light 13h 27m
Length of Day
12h 28m
Tomorrow will be 3m 6s shorter.
Last Quarter, 44% of the Moon is Illuminated
Today
Last Quarter
Sep 24
New
Oct 1
First Quarter
Oct 8
Full
Oct 15
Last Quarter

Today's Extremes

State Highs State Lows

Community

WunderPhotos

Upload Photos

1,753,823 photos uploaded!

Nearby

Snow Depth

Station Depth Elevation
Daly Creek 0 in 5780 ft
Barker Lakes 0 in 8250 ft
Shower Falls 0 in 8100 ft
Tizer Basin 0 in 6840 ft
Spur Park 0 in 8100 ft

Earthquake Activity

City Distance Mag. Time & Date
No recent earthquake activity has been reported nearby.
Minimum magnitude displayed is 2.5.

Coastal Water Temperatures

Place Temperature
No Stations Reporting

Nearby Weather Stations